Time;durP1;ratioP1;P1;durP2;ratioP2;P2;SDS_P1;SDS_P2;PMS_P1;PMS_P2;Temp;Humidity;BMP_temperature;BMP_pressure;BME280_temperature;BME280_humidity;BME280_pressure;Samples;Min_cycle;Max_cycle;Signal;HPM_P1;HPM_P2
2022/01/23 00:01:10;;;;;;;11.37;5.00;;;;;;;;;;5018285;28;20457;-70
2022/01/23 00:03:44;;;;;;;14.10;5.13;;;;;;;;;;5018166;28;20476;-72
2022/01/23 00:06:11;;;;;;;12.17;4.80;;;;;;;;;;4998820;28;20453;-72
2022/01/23 00:08:43;;;;;;;10.43;4.67;;;;;;;;;;5020184;28;20882;-72
2022/01/23 00:11:10;;;;;;;11.50;4.80;;;;;;;;;;5021496;28;21849;-72
2022/01/23 00:19:09;;;;;;;10.07;4.37;;;;;;;;;;5018386;28;20461;-72
2022/01/23 00:21:37;;;;;;;11.37;5.33;;;;;;;;;;5020997;28;20472;-73
2022/01/23 00:32:01;;;;;;;17.20;6.47;;;;;;;;;;5018922;28;20511;-73
2022/01/23 00:34:28;;;;;;;19.23;6.83;;;;;;;;;;5018094;28;20465;-72
2022/01/23 00:36:55;;;;;;;21.47;6.33;;;;;;;;;;5021492;28;20568;-73
2022/01/23 00:39:21;;;;;;;21.83;7.23;;;;;;;;;;5002113;28;20449;-72
2022/01/23 00:41:48;;;;;;;18.60;7.43;;;;;;;;;;5002426;28;20967;-73
2022/01/23 00:44:15;;;;;;;18.07;6.20;;;;;;;;;;5016023;28;20488;-72
2022/01/23 00:46:49;;;;;;;17.83;7.50;;;;;;;;;;5020583;28;20452;-73
2022/01/23 00:49:25;;;;;;;12.70;5.83;;;;;;;;;;4988357;28;20457;-72
2022/01/23 00:51:52;;;;;;;12.13;5.20;;;;;;;;;;5009656;28;216619;-73
2022/01/23 00:54:19;;;;;;;12.33;5.20;;;;;;;;;;5003344;28;20457;-73
2022/01/23 00:56:46;;;;;;;13.30;5.40;;;;;;;;;;5017440;28;20465;-72
2022/01/23 00:59:12;;;;;;;12.23;5.27;;;;;;;;;;5002951;28;20484;-72
2022/01/23 01:01:39;;;;;;;11.13;5.67;;;;;;;;;;5017985;28;20461;-72
2022/01/23 01:04:06;;;;;;;11.37;5.40;;;;;;;;;;4981970;28;20467;-72
2022/01/23 01:40:47;;;;;;;9.60;4.07;;;;;;;;;;5006731;28;45189;-72
2022/01/23 01:43:15;;;;;;;11.57;4.30;;;;;;;;;;5016487;28;20457;-72
2022/01/23 01:45:42;;;;;;;11.50;4.50;;;;;;;;;;5012429;28;20546;-72
2022/01/23 01:48:23;;;;;;;9.77;5.03;;;;;;;;;;4988698;28;33712;-73
2022/01/23 01:50:59;;;;;;;11.97;4.33;;;;;;;;;;5021458;28;20813;-72
2022/01/23 01:53:26;;;;;;;14.77;4.80;;;;;;;;;;4993316;28;21151;-72
2022/01/23 01:55:56;;;;;;;15.20;4.83;;;;;;;;;;4984013;28;20542;-72
2022/01/23 02:09:44;;;;;;;5.93;3.17;;;;;;;;;;5002265;28;31176;-72
2022/01/23 02:50:53;;;;;;;10.67;3.53;;;;;;;;;;5005918;28;20484;-72
2022/01/23 02:56:00;;;;;;;12.90;4.57;;;;;;;;;;5020369;28;20546;-72
2022/01/23 02:58:46;;;;;;;10.37;4.47;;;;;;;;;;5005012;28;20458;-70
2022/01/23 03:01:19;;;;;;;11.07;4.47;;;;;;;;;;4999786;28;24513;-74
2022/01/23 03:04:20;;;;;;;7.93;4.33;;;;;;;;;;4946489;28;214497;-74
2022/01/23 03:07:15;;;;;;;10.23;4.77;;;;;;;;;;5000656;28;20825;-73
2022/01/23 03:10:20;;;;;;;8.23;3.53;;;;;;;;;;5016553;28;20469;-74
2022/01/23 03:26:21;;;;;;;9.13;4.97;;;;;;;;;;5021005;28;20793;-74
2022/01/23 03:29:04;;;;;;;12.60;4.97;;;;;;;;;;5021236;28;20468;-72
2022/01/23 03:32:21;;;;;;;10.43;4.70;;;;;;;;;;5014872;28;23769;-74
2022/01/23 03:34:23;;;;;;;9.37;4.90;;;;;;;;;;5010819;28;20472;-74
2022/01/23 03:36:50;;;;;;;10.20;4.20;;;;;;;;;;5033842;28;34915;-72
2022/01/23 03:39:16;;;;;;;8.93;4.03;;;;;;;;;;5001972;28;20466;-74
2022/01/23 03:41:43;;;;;;;8.17;3.60;;;;;;;;;;5020849;28;20655;-74
2022/01/23 03:44:10;;;;;;;8.17;3.90;;;;;;;;;;4993704;28;20466;-74
2022/01/23 03:49:32;;;;;;;9.80;3.23;;;;;;;;;;5006788;28;20455;-72
2022/01/23 03:52:19;;;;;;;7.03;3.40;;;;;;;;;;4964424;28;20469;-72
2022/01/23 03:54:47;;;;;;;8.47;3.03;;;;;;;;;;4983497;28;20478;-72
2022/01/23 03:57:13;;;;;;;7.10;3.03;;;;;;;;;;5003375;28;20971;-72
2022/01/23 03:59:40;;;;;;;6.53;2.93;;;;;;;;;;5003453;28;20468;-70
2022/01/23 04:02:09;;;;;;;5.70;2.83;;;;;;;;;;5017705;28;20975;-72
2022/01/23 04:04:39;;;;;;;6.30;2.60;;;;;;;;;;5018732;28;20624;-72
2022/01/23 04:07:09;;;;;;;8.50;3.40;;;;;;;;;;4987964;28;20512;-72
2022/01/23 04:09:37;;;;;;;7.93;3.40;;;;;;;;;;5014227;28;35181;-73
2022/01/23 04:12:05;;;;;;;6.53;2.90;;;;;;;;;;4991948;28;20469;-72
2022/01/23 04:14:34;;;;;;;7.73;3.23;;;;;;;;;;4997301;28;20818;-73
2022/01/23 04:19:57;;;;;;;8.10;3.53;;;;;;;;;;5033738;28;20786;-72
2022/01/23 05:00:21;;;;;;;4.57;2.07;;;;;;;;;;5005179;28;21263;-73
2022/01/23 05:06:00;;;;;;;4.47;1.90;;;;;;;;;;5020697;28;20592;-73
2022/01/23 05:08:41;;;;;;;4.80;2.30;;;;;;;;;;5018303;28;20545;-71
2022/01/23 05:11:21;;;;;;;4.33;2.07;;;;;;;;;;4981733;28;20465;-73
2022/01/23 05:13:50;;;;;;;5.00;2.20;;;;;;;;;;5021678;28;20461;-73
2022/01/23 05:16:19;;;;;;;6.20;2.33;;;;;;;;;;4969794;28;20474;-73
2022/01/23 05:18:46;;;;;;;4.77;2.47;;;;;;;;;;5000365;28;21263;-73
2022/01/23 05:24:00;;;;;;;5.33;2.50;;;;;;;;;;4992433;28;22926;-73
2022/01/23 05:26:26;;;;;;;6.63;2.50;;;;;;;;;;4992083;28;20482;-73
2022/01/23 05:28:53;;;;;;;4.47;2.63;;;;;;;;;;4988105;28;20480;-73
2022/01/23 05:31:21;;;;;;;4.17;2.13;;;;;;;;;;4995419;28;20826;-73
2022/01/23 05:33:48;;;;;;;4.27;2.50;;;;;;;;;;4986719;28;20481;-73
2022/01/23 05:36:14;;;;;;;5.53;2.33;;;;;;;;;;5000892;28;33812;-73
2022/01/23 05:38:43;;;;;;;6.47;2.90;;;;;;;;;;5010447;28;20457;-73
2022/01/23 05:41:10;;;;;;;5.43;2.60;;;;;;;;;;4992126;28;20546;-73
2022/01/23 05:43:37;;;;;;;4.40;2.27;;;;;;;;;;5001687;28;20458;-77
2022/01/23 05:46:04;;;;;;;4.97;2.57;;;;;;;;;;4953125;28;20541;-73
2022/01/23 05:48:34;;;;;;;7.00;3.30;;;;;;;;;;4983741;28;20467;-75
2022/01/23 05:51:29;;;;;;;4.80;2.40;;;;;;;;;;4962638;28;20471;-71
2022/01/23 05:54:02;;;;;;;7.20;2.43;;;;;;;;;;4948472;28;55364;-72
2022/01/23 05:56:40;;;;;;;5.50;2.53;;;;;;;;;;4952542;28;217601;-71
2022/01/23 05:59:21;;;;;;;5.07;2.50;;;;;;;;;;4953567;28;20476;-71
2022/01/23 06:01:51;;;;;;;3.87;2.03;;;;;;;;;;4951306;28;20852;-71
2022/01/23 06:04:24;;;;;;;5.57;2.40;;;;;;;;;;4925283;28;20519;-71
2022/01/23 06:07:11;;;;;;;4.70;2.47;;;;;;;;;;4893252;28;24273;-71
2022/01/23 06:09:48;;;;;;;7.30;2.50;;;;;;;;;;4951605;28;20533;-71
2022/01/23 06:12:14;;;;;;;6.43;2.50;;;;;;;;;;4958579;28;20467;-70
2022/01/23 06:14:41;;;;;;;6.63;2.70;;;;;;;;;;4950780;28;20475;-70
2022/01/23 06:17:08;;;;;;;5.70;2.83;;;;;;;;;;4941478;28;20558;-72
2022/01/23 06:19:53;;;;;;;4.40;2.73;;;;;;;;;;4938421;28;20449;-71
2022/01/23 06:22:42;;;;;;;9.20;3.70;;;;;;;;;;4963224;28;20231;-70
2022/01/23 06:25:45;;;;;;;6.80;3.30;;;;;;;;;;4902301;28;20869;-69
2022/01/23 06:28:43;;;;;;;9.40;3.63;;;;;;;;;;4948734;28;20454;-69
2022/01/23 06:31:10;;;;;;;7.17;4.00;;;;;;;;;;4927197;28;20491;-70
2022/01/23 06:33:37;;;;;;;8.70;3.60;;;;;;;;;;4936913;28;22217;-71
2022/01/23 06:36:07;;;;;;;8.53;4.00;;;;;;;;;;4966087;28;20873;-70
2022/01/23 06:38:35;;;;;;;8.30;3.80;;;;;;;;;;4960297;28;20987;-71
2022/01/23 06:41:03;;;;;;;8.17;3.53;;;;;;;;;;4922610;28;20461;-71
2022/01/23 06:43:48;;;;;;;6.37;3.43;;;;;;;;;;4955175;28;20468;-71
2022/01/23 06:46:25;;;;;;;9.93;3.37;;;;;;;;;;4927749;28;20459;-71
2022/01/23 06:48:52;;;;;;;9.00;3.13;;;;;;;;;;4914527;28;20791;-70
2022/01/23 06:51:20;;;;;;;11.37;3.73;;;;;;;;;;4948481;28;25740;-70
2022/01/23 06:53:47;;;;;;;10.07;3.53;;;;;;;;;;4951522;28;21322;-71
2022/01/23 06:56:15;;;;;;;10.33;3.53;;;;;;;;;;4932212;28;20458;-71
2022/01/23 06:58:43;;;;;;;11.20;3.40;;;;;;;;;;4950926;28;32956;-70
2022/01/23 07:01:10;;;;;;;7.37;3.40;;;;;;;;;;4944000;28;21781;-71
2022/01/23 07:03:46;;;;;;;12.10;4.00;;;;;;;;;;4917858;28;20535;-69
2022/01/23 07:06:30;;;;;;;10.10;4.37;;;;;;;;;;4941511;28;20563;-70
2022/01/23 07:09:30;;;;;;;13.40;4.53;;;;;;;;;;4936822;28;38492;-71
2022/01/23 07:12:26;;;;;;;10.77;4.67;;;;;;;;;;4915799;28;20462;-73
2022/01/23 07:15:11;;;;;;;9.00;4.80;;;;;;;;;;4960919;28;21841;-70
2022/01/23 07:17:56;;;;;;;10.70;5.00;;;;;;;;;;4956036;28;26346;-71
2022/01/23 07:20:37;;;;;;;14.03;4.90;;;;;;;;;;4948247;28;20460;-71
2022/01/23 07:23:10;;;;;;;16.27;5.57;;;;;;;;;;4940634;28;230404;-68
2022/01/23 07:25:41;;;;;;;12.43;5.40;;;;;;;;;;4951953;28;46617;-70
2022/01/23 07:28:14;;;;;;;18.40;7.70;;;;;;;;;;4924672;28;22142;-70
2022/01/23 07:33:14;;;;;;;14.97;5.40;;;;;;;;;;4960661;28;20487;-70
2022/01/23 07:35:41;;;;;;;15.50;5.33;;;;;;;;;;4951718;28;20525;-70
2022/01/23 07:38:10;;;;;;;15.63;5.50;;;;;;;;;;4952104;28;24125;-71
2022/01/23 07:40:49;;;;;;;15.50;6.57;;;;;;;;;;4963665;28;22510;-70
2022/01/23 07:43:24;;;;;;;18.77;7.90;;;;;;;;;;4955135;28;20742;-75
2022/01/23 07:46:09;;;;;;;17.43;7.63;;;;;;;;;;4922996;28;20552;-71
2022/01/23 07:48:41;;;;;;;18.87;7.23;;;;;;;;;;4934192;28;219599;-73
2022/01/23 07:51:27;;;;;;;16.50;7.23;;;;;;;;;;4952636;28;20325;-71
2022/01/23 07:54:04;;;;;;;17.87;7.57;;;;;;;;;;4912660;28;20471;-70
2022/01/23 07:56:39;;;;;;;17.90;7.47;;;;;;;;;;4950015;28;20861;-74
2022/01/23 07:59:26;;;;;;;17.77;7.33;;;;;;;;;;4964868;28;20828;-71
2022/01/23 08:02:30;;;;;;;18.70;7.47;;;;;;;;;;4883323;29;20502;-73
2022/01/23 08:05:15;;;;;;;14.70;6.77;;;;;;;;;;4985386;28;20452;-75
2022/01/23 08:07:54;;;;;;;13.00;6.17;;;;;;;;;;4984892;28;27061;-74
2022/01/23 08:10:34;;;;;;;12.63;5.77;;;;;;;;;;4980644;28;20454;-74
2022/01/23 08:13:05;;;;;;;14.33;6.20;;;;;;;;;;4982926;28;41343;-74
2022/01/23 08:15:32;;;;;;;15.03;6.70;;;;;;;;;;4963432;28;20455;-74
2022/01/23 08:18:02;;;;;;;10.90;5.80;;;;;;;;;;4976506;28;20459;-74
2022/01/23 08:20:29;;;;;;;12.77;5.63;;;;;;;;;;4955412;28;220394;-75
2022/01/23 08:22:58;;;;;;;14.70;6.77;;;;;;;;;;4970311;28;20464;-75
2022/01/23 08:25:25;;;;;;;12.97;6.47;;;;;;;;;;4965932;28;109828;-75
2022/01/23 08:27:52;;;;;;;13.33;6.67;;;;;;;;;;4975825;28;20237;-74
2022/01/23 08:30:18;;;;;;;14.10;6.70;;;;;;;;;;4960991;28;145329;-75
2022/01/23 08:32:45;;;;;;;13.83;6.20;;;;;;;;;;4957463;28;57370;-75
2022/01/23 08:35:13;;;;;;;13.33;5.40;;;;;;;;;;4975499;28;20235;-74
2022/01/23 08:37:39;;;;;;;10.23;4.90;;;;;;;;;;4977010;28;20463;-75
2022/01/23 08:40:16;;;;;;;12.60;5.23;;;;;;;;;;4938029;28;20232;-74
2022/01/23 08:42:43;;;;;;;9.90;5.10;;;;;;;;;;4946682;28;21114;-74
2022/01/23 08:45:10;;;;;;;9.57;5.37;;;;;;;;;;4955269;28;20978;-74
2022/01/23 08:47:37;;;;;;;10.93;5.03;;;;;;;;;;4953761;28;20963;-73
2022/01/23 08:50:04;;;;;;;12.03;5.80;;;;;;;;;;4941934;28;20465;-74
2022/01/23 08:52:30;;;;;;;15.53;5.90;;;;;;;;;;4968126;28;20460;-73
2022/01/23 08:54:57;;;;;;;15.63;6.43;;;;;;;;;;4960836;28;20520;-74
2022/01/23 08:57:24;;;;;;;12.30;6.03;;;;;;;;;;4960189;28;25251;-73
2022/01/23 08:59:51;;;;;;;14.30;6.30;;;;;;;;;;4959268;28;20472;-75
2022/01/23 09:02:18;;;;;;;15.00;6.57;;;;;;;;;;4928583;28;20386;-74
2022/01/23 09:04:45;;;;;;;11.50;5.73;;;;;;;;;;4958630;28;34671;-73
2022/01/23 09:07:11;;;;;;;15.57;6.43;;;;;;;;;;4966568;28;20441;-75
2022/01/23 09:09:40;;;;;;;11.03;6.43;;;;;;;;;;4976531;28;20462;-75
2022/01/23 09:12:20;;;;;;;14.53;6.67;;;;;;;;;;4958708;28;21435;-75
2022/01/23 09:14:47;;;;;;;13.60;6.80;;;;;;;;;;4962985;28;20491;-73
2022/01/23 09:17:14;;;;;;;16.03;7.27;;;;;;;;;;4971206;28;20948;-76
2022/01/23 09:19:41;;;;;;;13.53;7.70;;;;;;;;;;4971434;28;20463;-65
2022/01/23 09:22:08;;;;;;;13.47;7.13;;;;;;;;;;4970628;28;20500;-64
2022/01/23 09:24:35;;;;;;;16.20;7.30;;;;;;;;;;4975984;28;20542;-64
2022/01/23 09:27:06;;;;;;;17.23;7.00;;;;;;;;;;4970119;28;55302;-72
2022/01/23 09:29:40;;;;;;;16.20;8.03;;;;;;;;;;4974910;28;20238;-73
2022/01/23 09:32:09;;;;;;;15.53;7.90;;;;;;;;;;4965624;28;218253;-72
2022/01/23 09:34:37;;;;;;;16.53;8.03;;;;;;;;;;4975674;28;20496;-72
2022/01/23 09:37:05;;;;;;;14.00;7.83;;;;;;;;;;4974940;28;20792;-74
2022/01/23 09:39:32;;;;;;;15.13;8.97;;;;;;;;;;4969854;28;27712;-72
2022/01/23 09:42:01;;;;;;;16.57;8.23;;;;;;;;;;4953625;28;20533;-73
2022/01/23 09:44:30;;;;;;;16.20;8.53;;;;;;;;;;4971439;28;63389;-72
2022/01/23 09:46:58;;;;;;;17.60;9.30;;;;;;;;;;4970920;28;50554;-72
2022/01/23 09:49:25;;;;;;;18.90;10.20;;;;;;;;;;4975054;28;20486;-72
2022/01/23 09:51:52;;;;;;;17.20;9.57;;;;;;;;;;4975836;28;20259;-71
2022/01/23 09:54:18;;;;;;;20.17;9.40;;;;;;;;;;4972965;28;20474;-72
2022/01/23 09:56:45;;;;;;;20.63;10.47;;;;;;;;;;4968275;28;20314;-71
2022/01/23 09:59:12;;;;;;;23.00;11.10;;;;;;;;;;4982665;28;20493;-72
2022/01/23 10:01:42;;;;;;;25.77;12.30;;;;;;;;;;4976679;28;20545;-72
2022/01/23 10:04:09;;;;;;;21.90;11.17;;;;;;;;;;4980209;28;22505;-70
2022/01/23 10:06:36;;;;;;;20.33;11.53;;;;;;;;;;4985845;28;21013;-72
2022/01/23 10:09:06;;;;;;;24.73;11.93;;;;;;;;;;4979021;28;20240;-71
2022/01/23 10:11:39;;;;;;;27.43;13.43;;;;;;;;;;4973926;28;20463;-71
2022/01/23 10:14:06;;;;;;;25.03;12.97;;;;;;;;;;4967171;28;20470;-71
2022/01/23 10:16:33;;;;;;;28.87;13.67;;;;;;;;;;4991194;28;20557;-72
2022/01/23 10:19:01;;;;;;;27.07;13.57;;;;;;;;;;4973790;28;20749;-72
2022/01/23 10:21:31;;;;;;;28.30;13.07;;;;;;;;;;4963268;28;26696;-73
2022/01/23 10:23:59;;;;;;;27.70;12.90;;;;;;;;;;4945363;28;20250;-72
2022/01/23 10:26:39;;;;;;;25.70;12.87;;;;;;;;;;4953594;28;35420;-72
2022/01/23 10:29:15;;;;;;;28.27;14.23;;;;;;;;;;4941767;28;20966;-72
2022/01/23 10:32:00;;;;;;;27.63;16.10;;;;;;;;;;4940229;28;214382;-73
2022/01/23 10:34:46;;;;;;;27.97;13.63;;;;;;;;;;4981987;28;20684;-73
2022/01/23 10:37:22;;;;;;;23.43;12.97;;;;;;;;;;4987211;28;20386;-73
2022/01/23 10:39:49;;;;;;;26.77;13.17;;;;;;;;;;4985740;28;20544;-73
2022/01/23 10:42:47;;;;;;;24.90;13.13;;;;;;;;;;4973438;28;20884;-73
2022/01/23 10:48:00;;;;;;;23.97;11.97;;;;;;;;;;4963542;28;20510;-71
2022/01/23 10:50:27;;;;;;;24.83;12.10;;;;;;;;;;4919129;28;221165;-72
2022/01/23 10:52:58;;;;;;;29.10;13.80;;;;;;;;;;4955586;28;20538;-71
2022/01/23 10:55:34;;;;;;;24.73;13.50;;;;;;;;;;4965639;28;20981;-71
2022/01/23 10:58:02;;;;;;;27.10;14.50;;;;;;;;;;4971773;28;20465;-71
2022/01/23 11:00:34;;;;;;;27.40;13.43;;;;;;;;;;4975417;28;20465;-70
2022/01/23 11:03:12;;;;;;;27.87;13.60;;;;;;;;;;4964236;28;20234;-70
2022/01/23 11:05:39;;;;;;;27.10;13.73;;;;;;;;;;4947614;28;20482;-71
2022/01/23 11:08:22;;;;;;;32.13;14.73;;;;;;;;;;4983798;28;20228;-71
2022/01/23 11:10:59;;;;;;;25.00;12.87;;;;;;;;;;4980571;28;20470;-70
2022/01/23 11:19:17;;;;;;;29.83;14.80;;;;;;;;;;4970686;28;20465;-70
2022/01/23 11:21:44;;;;;;;24.90;13.43;;;;;;;;;;4975046;28;26979;-71
2022/01/23 11:24:19;;;;;;;26.73;14.43;;;;;;;;;;4979009;28;20458;-70
2022/01/23 11:26:45;;;;;;;27.87;13.73;;;;;;;;;;4984997;28;20856;-70
2022/01/23 11:29:17;;;;;;;30.70;14.67;;;;;;;;;;4980227;28;20677;-70
2022/01/23 11:31:44;;;;;;;30.40;14.27;;;;;;;;;;4996395;28;20458;-70
2022/01/23 11:34:14;;;;;;;29.13;15.03;;;;;;;;;;4952695;28;20689;-71
2022/01/23 11:36:42;;;;;;;27.43;14.60;;;;;;;;;;4972600;28;20495;-70
2022/01/23 11:39:15;;;;;;;27.97;14.43;;;;;;;;;;4955832;28;20538;-71
2022/01/23 11:56:23;;;;;;;36.07;17.40;;;;;;;;;;4971647;28;20483;-70
2022/01/23 11:58:56;;;;;;;46.60;22.90;;;;;;;;;;4960095;28;60816;-70
2022/01/23 12:01:25;;;;;;;42.23;20.00;;;;;;;;;;4946879;28;20475;-70
2022/01/23 12:04:08;;;;;;;56.57;23.60;;;;;;;;;;4952869;28;20527;-70
2022/01/23 12:06:35;;;;;;;39.20;17.57;;;;;;;;;;4957606;28;20821;-72
2022/01/23 12:09:11;;;;;;;49.33;19.37;;;;;;;;;;4975209;28;20462;-72
2022/01/23 12:17:03;;;;;;;48.93;18.40;;;;;;;;;;4963331;28;20475;-72
2022/01/23 12:19:31;;;;;;;38.73;17.53;;;;;;;;;;4966116;28;213018;-72
2022/01/23 12:22:00;;;;;;;43.33;19.73;;;;;;;;;;4981000;28;20462;-72
2022/01/23 12:24:27;;;;;;;49.57;20.37;;;;;;;;;;4995030;28;20459;-72
2022/01/23 12:27:15;;;;;;;41.03;18.07;;;;;;;;;;4975958;28;20969;-72
2022/01/23 12:29:42;;;;;;;32.80;15.53;;;;;;;;;;4980339;28;20226;-70
2022/01/23 12:32:16;;;;;;;32.43;15.50;;;;;;;;;;4973268;28;20516;-73
2022/01/23 12:34:46;;;;;;;34.60;18.30;;;;;;;;;;4953385;28;20467;-70
2022/01/23 12:37:13;;;;;;;39.30;17.83;;;;;;;;;;4958994;28;28355;-72
2022/01/23 12:39:39;;;;;;;40.90;18.83;;;;;;;;;;4973868;28;20484;-71
2022/01/23 12:42:06;;;;;;;42.20;20.70;;;;;;;;;;4970212;28;20473;-70
2022/01/23 12:44:34;;;;;;;37.20;19.20;;;;;;;;;;4963296;28;20466;-70
2022/01/23 12:47:01;;;;;;;42.13;19.57;;;;;;;;;;4959184;28;20893;-70
2022/01/23 12:49:31;;;;;;;42.87;20.83;;;;;;;;;;4995491;28;20456;-70
2022/01/23 12:52:08;;;;;;;39.00;19.80;;;;;;;;;;4992298;28;20975;-70
2022/01/23 12:54:34;;;;;;;35.17;17.13;;;;;;;;;;4976868;28;20461;-71
2022/01/23 12:57:05;;;;;;;36.50;18.93;;;;;;;;;;4991399;28;20978;-70
2022/01/23 12:59:34;;;;;;;36.50;18.67;;;;;;;;;;4981048;28;20455;-70
2022/01/23 13:02:07;;;;;;;40.27;17.40;;;;;;;;;;4987394;28;20241;-71
2022/01/23 13:04:39;;;;;;;36.90;18.43;;;;;;;;;;4981986;28;20546;-72
2022/01/23 13:07:15;;;;;;;39.87;17.73;;;;;;;;;;4982349;28;21190;-71
2022/01/23 13:10:03;;;;;;;45.73;20.73;;;;;;;;;;4967752;28;20467;-70
2022/01/23 13:18:52;;;;;;;35.60;18.93;;;;;;;;;;4972817;28;20455;-71
2022/01/23 13:30:13;;;;;;;44.30;21.13;;;;;;;;;;4980607;28;20458;-69
2022/01/23 13:32:37;;;;;;;48.60;22.30;;;;;;;;;;4966238;28;20230;-69
2022/01/23 13:35:09;;;;;;;42.93;20.70;;;;;;;;;;4966995;28;21009;-70
2022/01/23 13:37:40;;;;;;;51.53;22.93;;;;;;;;;;4969058;28;20459;-70
2022/01/23 13:40:09;;;;;;;54.00;23.53;;;;;;;;;;4972999;28;20455;-69
2022/01/23 13:59:14;;;;;;;47.50;23.43;;;;;;;;;;4978000;28;20470;-70
2022/01/23 14:01:52;;;;;;;61.83;29.17;;;;;;;;;;4969065;28;26182;-70
2022/01/23 14:04:19;;;;;;;58.97;31.00;;;;;;;;;;4958735;28;233033;-70
2022/01/23 14:06:46;;;;;;;60.03;31.17;;;;;;;;;;4976735;28;20460;-69
2022/01/23 14:09:13;;;;;;;62.60;30.47;;;;;;;;;;4984487;28;28128;-70
2022/01/23 14:11:42;;;;;;;66.13;30.73;;;;;;;;;;4973500;28;22495;-69
2022/01/23 14:14:12;;;;;;;64.67;32.07;;;;;;;;;;4958108;28;20475;-69
2022/01/23 14:16:39;;;;;;;57.40;28.83;;;;;;;;;;4981397;28;20459;-69
2022/01/23 14:19:35;;;;;;;59.60;28.20;;;;;;;;;;4977135;28;20474;-69
2022/01/23 14:22:02;;;;;;;52.97;26.73;;;;;;;;;;4967257;28;20458;-69
2022/01/23 14:24:32;;;;;;;61.90;27.50;;;;;;;;;;4966536;28;33609;-72
2022/01/23 14:27:02;;;;;;;50.87;26.27;;;;;;;;;;4944480;28;20470;-72
2022/01/23 14:29:29;;;;;;;59.03;27.23;;;;;;;;;;4948822;28;20232;-69
2022/01/23 14:32:06;;;;;;;59.27;28.27;;;;;;;;;;4927064;28;25410;-70
2022/01/23 14:34:33;;;;;;;56.57;27.47;;;;;;;;;;4954104;28;20234;-69
2022/01/23 14:37:03;;;;;;;51.80;27.47;;;;;;;;;;4962456;28;20468;-69
2022/01/23 14:39:30;;;;;;;60.63;28.60;;;;;;;;;;4962262;28;20516;-70
2022/01/23 14:42:08;;;;;;;62.63;29.23;;;;;;;;;;4959246;28;20469;-70
2022/01/23 14:44:35;;;;;;;58.90;28.93;;;;;;;;;;4958352;28;20529;-71
2022/01/23 14:47:02;;;;;;;57.30;28.27;;;;;;;;;;4940640;28;32832;-70
2022/01/23 14:49:31;;;;;;;60.70;29.23;;;;;;;;;;4958150;28;21066;-69
2022/01/23 14:51:58;;;;;;;64.83;30.67;;;;;;;;;;4958547;28;20488;-69
2022/01/23 14:54:25;;;;;;;66.10;30.30;;;;;;;;;;4958162;28;20224;-70
2022/01/23 14:56:52;;;;;;;68.77;30.37;;;;;;;;;;4956332;28;25500;-70
2022/01/23 14:59:22;;;;;;;60.37;29.77;;;;;;;;;;4961079;28;20467;-70
2022/01/23 15:01:49;;;;;;;63.10;28.87;;;;;;;;;;4942742;28;20460;-70
2022/01/23 15:04:20;;;;;;;60.93;28.03;;;;;;;;;;4929916;28;20468;-70
2022/01/23 15:06:47;;;;;;;54.47;26.77;;;;;;;;;;4942632;28;28322;-72
2022/01/23 15:09:15;;;;;;;54.67;26.63;;;;;;;;;;4947088;28;34404;-72
2022/01/23 15:11:42;;;;;;;56.37;26.53;;;;;;;;;;4937153;28;20523;-70
2022/01/23 15:14:12;;;;;;;47.63;24.20;;;;;;;;;;4959919;28;20471;-69
2022/01/23 15:16:39;;;;;;;50.77;26.30;;;;;;;;;;4945935;28;20958;-70
2022/01/23 15:19:07;;;;;;;46.77;25.20;;;;;;;;;;4943098;28;20812;-69
2022/01/23 15:21:35;;;;;;;48.03;24.33;;;;;;;;;;4936288;28;216721;-69
2022/01/23 15:24:02;;;;;;;52.87;26.90;;;;;;;;;;4955070;28;20465;-71
2022/01/23 15:26:30;;;;;;;47.27;24.70;;;;;;;;;;4979347;28;20529;-71
2022/01/23 15:28:57;;;;;;;47.67;24.40;;;;;;;;;;4982470;28;20451;-69
2022/01/23 15:31:24;;;;;;;51.97;24.60;;;;;;;;;;4976333;28;39118;-69
2022/01/23 15:34:15;;;;;;;50.40;25.73;;;;;;;;;;4974685;28;21241;-69
2022/01/23 15:36:42;;;;;;;49.67;24.43;;;;;;;;;;4965127;28;20457;-69
2022/01/23 15:39:09;;;;;;;59.03;26.83;;;;;;;;;;4972914;28;20243;-68
2022/01/23 15:41:36;;;;;;;54.10;26.03;;;;;;;;;;4978441;28;20454;-69
2022/01/23 15:44:03;;;;;;;61.43;27.77;;;;;;;;;;4996551;28;20450;-69
2022/01/23 15:46:35;;;;;;;50.73;24.97;;;;;;;;;;4975340;28;220119;-69
2022/01/23 15:49:03;;;;;;;52.87;24.00;;;;;;;;;;4995541;28;20466;-68
2022/01/23 15:51:30;;;;;;;52.70;25.47;;;;;;;;;;4989192;28;21277;-69
2022/01/23 15:53:56;;;;;;;54.17;25.80;;;;;;;;;;4939046;28;20499;-68
2022/01/23 15:56:24;;;;;;;62.30;26.23;;;;;;;;;;4936476;28;21196;-69
2022/01/23 15:58:50;;;;;;;64.73;30.07;;;;;;;;;;4950762;28;20797;-69
2022/01/23 16:01:18;;;;;;;65.50;29.40;;;;;;;;;;4954522;28;20467;-69
2022/01/23 16:03:45;;;;;;;73.00;33.30;;;;;;;;;;4953996;28;20471;-69
2022/01/23 16:06:14;;;;;;;74.57;32.40;;;;;;;;;;4955992;28;20480;-69
2022/01/23 16:08:41;;;;;;;72.63;32.67;;;;;;;;;;4951056;28;20468;-69
2022/01/23 16:11:08;;;;;;;76.03;32.03;;;;;;;;;;4938518;28;20873;-69
2022/01/23 16:13:36;;;;;;;75.10;33.63;;;;;;;;;;4951691;28;20482;-69
2022/01/23 16:16:03;;;;;;;83.60;37.37;;;;;;;;;;4956989;28;25655;-69
2022/01/23 16:18:30;;;;;;;90.73;37.03;;;;;;;;;;4958340;28;20553;-69
2022/01/23 16:20:57;;;;;;;84.73;37.83;;;;;;;;;;4956297;28;20231;-69
2022/01/23 16:23:24;;;;;;;89.93;36.93;;;;;;;;;;4947417;28;217082;-69
2022/01/23 16:26:09;;;;;;;85.73;36.13;;;;;;;;;;4942662;28;21362;-69
2022/01/23 16:28:36;;;;;;;78.73;34.87;;;;;;;;;;4957352;28;20460;-69
2022/01/23 16:31:03;;;;;;;70.67;31.60;;;;;;;;;;4929209;28;20454;-69
2022/01/23 16:33:30;;;;;;;60.07;29.67;;;;;;;;;;4953149;28;20464;-69
2022/01/23 16:35:57;;;;;;;62.80;29.80;;;;;;;;;;4941700;28;20464;-69
2022/01/23 16:38:23;;;;;;;54.47;25.77;;;;;;;;;;4940981;28;20471;-69
2022/01/23 16:40:54;;;;;;;50.33;25.43;;;;;;;;;;4950919;28;20535;-69
2022/01/23 16:43:25;;;;;;;48.70;24.57;;;;;;;;;;4953137;28;20475;-69
2022/01/23 16:45:52;;;;;;;55.33;24.23;;;;;;;;;;4938131;28;20903;-69
2022/01/23 16:48:20;;;;;;;52.23;23.67;;;;;;;;;;4923928;28;20522;-69
2022/01/23 16:50:53;;;;;;;46.43;23.33;;;;;;;;;;4938033;28;20844;-69
2022/01/23 16:53:19;;;;;;;45.30;22.53;;;;;;;;;;4918550;28;25074;-69
2022/01/23 16:55:46;;;;;;;44.80;23.87;;;;;;;;;;4958965;28;20480;-67
2022/01/23 16:58:13;;;;;;;46.93;23.40;;;;;;;;;;4935398;28;20546;-67
2022/01/23 17:00:40;;;;;;;44.80;22.57;;;;;;;;;;4958358;28;20460;-68
2022/01/23 17:03:07;;;;;;;49.03;24.37;;;;;;;;;;4960951;28;20322;-67
2022/01/23 17:05:34;;;;;;;53.17;24.07;;;;;;;;;;4954864;28;20495;-67
2022/01/23 17:08:01;;;;;;;49.47;25.57;;;;;;;;;;4956369;28;21549;-68
2022/01/23 17:10:28;;;;;;;55.43;27.83;;;;;;;;;;4941714;28;20999;-68
2022/01/23 17:12:55;;;;;;;55.33;27.77;;;;;;;;;;4956164;28;21151;-68
2022/01/23 17:15:23;;;;;;;51.60;25.87;;;;;;;;;;4953569;28;20236;-68
2022/01/23 17:17:50;;;;;;;50.17;26.90;;;;;;;;;;4969427;28;20490;-70
2022/01/23 17:20:20;;;;;;;48.57;25.50;;;;;;;;;;4965732;28;20868;-72
2022/01/23 17:22:47;;;;;;;51.07;26.87;;;;;;;;;;4976467;28;20475;-71
2022/01/23 17:25:14;;;;;;;53.37;28.17;;;;;;;;;;4957431;28;20459;-71
2022/01/23 17:27:44;;;;;;;56.17;27.00;;;;;;;;;;4961691;28;20491;-68
2022/01/23 17:30:12;;;;;;;54.40;27.47;;;;;;;;;;4952091;28;214481;-68
2022/01/23 17:32:40;;;;;;;58.43;29.17;;;;;;;;;;4958341;28;21129;-68
2022/01/23 17:35:17;;;;;;;64.67;31.43;;;;;;;;;;4943011;28;20455;-70
2022/01/23 17:37:46;;;;;;;63.23;29.43;;;;;;;;;;4955450;28;20511;-70
2022/01/23 17:40:15;;;;;;;67.87;30.93;;;;;;;;;;4959518;28;20483;-69
2022/01/23 17:42:42;;;;;;;60.20;29.37;;;;;;;;;;4960227;28;20469;-68
2022/01/23 17:45:12;;;;;;;62.07;31.27;;;;;;;;;;4961981;28;23439;-69
2022/01/23 17:50:31;;;;;;;74.20;32.40;;;;;;;;;;4895946;28;20498;-70
2022/01/23 17:52:58;;;;;;;72.80;33.33;;;;;;;;;;4966144;28;20469;-70
2022/01/23 17:55:26;;;;;;;75.27;38.47;;;;;;;;;;4971542;28;20506;-71
2022/01/23 17:57:53;;;;;;;82.27;41.43;;;;;;;;;;4973923;28;20538;-71
2022/01/23 18:00:20;;;;;;;72.50;37.03;;;;;;;;;;5001550;28;20541;-70
2022/01/23 18:02:53;;;;;;;78.07;37.33;;;;;;;;;;4968444;28;20462;-70
2022/01/23 18:05:20;;;;;;;79.37;37.50;;;;;;;;;;4971698;28;20472;-69
2022/01/23 18:07:47;;;;;;;74.70;36.23;;;;;;;;;;4977428;28;20552;-70
2022/01/23 18:10:14;;;;;;;65.67;33.20;;;;;;;;;;4983797;28;20455;-70
2022/01/23 18:12:41;;;;;;;71.53;32.27;;;;;;;;;;4968872;28;20824;-70
2022/01/23 18:15:08;;;;;;;71.37;31.33;;;;;;;;;;4979285;28;20500;-70
2022/01/23 18:17:38;;;;;;;71.67;33.03;;;;;;;;;;4965994;28;24961;-69
2022/01/23 18:20:04;;;;;;;70.80;33.57;;;;;;;;;;4976709;28;20459;-70
2022/01/23 18:22:32;;;;;;;64.30;33.90;;;;;;;;;;4972857;28;20466;-70
2022/01/23 18:24:59;;;;;;;66.60;32.20;;;;;;;;;;4960992;28;20550;-70
2022/01/23 18:27:26;;;;;;;70.43;33.63;;;;;;;;;;4962887;28;20462;-69
2022/01/23 18:29:54;;;;;;;62.03;31.40;;;;;;;;;;4972576;28;20460;-69
2022/01/23 18:32:21;;;;;;;54.83;29.80;;;;;;;;;;4987472;28;20239;-70
2022/01/23 18:34:52;;;;;;;57.40;28.67;;;;;;;;;;4983497;28;20467;-68
2022/01/23 18:37:20;;;;;;;57.23;28.43;;;;;;;;;;4973535;28;20471;-69